createdAt,value
2016-02-15T00:00:13.582Z,0
2016-02-15T00:01:13.599Z,0
2016-02-15T00:02:13.618Z,0
2016-02-15T00:03:13.652Z,0
2016-02-15T00:04:13.654Z,0
2016-02-15T00:05:13.672Z,0
2016-02-15T00:06:13.691Z,0
2016-02-15T00:07:13.725Z,0
2016-02-15T00:08:13.728Z,0
2016-02-15T00:09:13.746Z,0
2016-02-15T00:10:13.795Z,0
2016-02-15T00:11:13.782Z,0
2016-02-15T00:12:13.817Z,0
2016-02-15T00:13:13.834Z,0
2016-02-15T00:14:13.853Z,0
2016-02-15T00:15:13.872Z,0
2016-02-15T00:16:13.875Z,0
2016-02-15T00:17:13.892Z,0
2016-02-15T00:18:13.911Z,0
2016-02-15T00:19:13.928Z,0
2016-02-15T00:20:13.932Z,0
2016-02-15T00:21:13.966Z,0
2016-02-15T00:22:13.983Z,0
2016-02-15T00:23:14.002Z,0
2016-02-15T00:24:14.021Z,0
2016-02-15T00:25:14.024Z,0
2016-02-15T00:26:14.072Z,0
2016-02-15T00:27:13.904Z,0
2016-02-15T00:28:14.110Z,0
2016-02-15T00:29:14.096Z,0
2016-02-15T00:30:14.115Z,0
2016-02-15T00:31:14.165Z,0
2016-02-15T00:32:14.182Z,0
2016-02-15T00:33:14.171Z,0
2016-02-15T00:34:14.188Z,0
2016-02-15T00:35:14.206Z,0
2016-02-15T00:36:14.225Z,0
2016-02-15T00:37:14.243Z,0
2016-02-15T00:38:14.261Z,0
2016-02-15T00:39:14.295Z,0
2016-02-15T00:40:14.298Z,0
2016-02-15T00:41:14.332Z,0
2016-02-15T00:42:14.334Z,0
2016-02-15T00:43:14.368Z,0
2016-02-15T00:44:14.356Z,0
2016-02-15T00:45:14.406Z,0
2016-02-15T00:46:14.392Z,0
2016-02-15T00:47:14.425Z,0
2016-02-15T00:48:14.445Z,0
2016-02-15T00:49:14.447Z,0
2016-02-15T00:50:14.481Z,0
2016-02-15T00:51:14.484Z,0
2016-02-15T00:52:14.502Z,0
2016-02-15T00:53:14.536Z,0
2016-02-15T00:54:14.555Z,0
2016-02-15T00:55:14.557Z,0
2016-02-15T00:56:14.607Z,0
2016-02-15T00:57:14.594Z,0
2016-02-15T00:58:14.613Z,0
2016-02-15T00:59:14.646Z,0
2016-02-15T01:00:14.648Z,0
2016-02-15T01:01:14.667Z,0
2016-02-15T01:02:14.701Z,0
2016-02-15T01:03:14.718Z,0
2016-02-15T01:04:14.721Z,0
2016-02-15T01:05:14.740Z,0
2016-02-15T01:06:14.743Z,0
2016-02-15T01:07:14.777Z,0
2016-02-15T01:08:14.779Z,0
2016-02-15T01:09:14.813Z,0
2016-02-15T01:10:14.832Z,0
2016-02-15T01:11:14.834Z,0
2016-02-15T01:12:14.866Z,0
2016-02-15T01:13:14.844Z,0
2016-02-15T01:14:14.866Z,0
2016-02-15T01:15:14.889Z,0
2016-02-15T01:16:14.880Z,0
2016-02-15T01:17:14.747Z,0
2016-02-15T01:18:14.918Z,0
2016-02-15T01:19:14.916Z,0
2016-02-15T01:20:14.930Z,0
2016-02-15T01:21:14.944Z,0
2016-02-15T01:22:22.990Z,0
2016-02-15T01:23:14.976Z,0
2016-02-15T01:24:14.978Z,0
2016-02-15T01:25:15.009Z,0
2016-02-15T01:26:15.025Z,0
2016-02-15T01:27:15.043Z,0
2016-02-15T01:28:15.061Z,0
2016-02-15T01:29:15.063Z,0
2016-02-15T01:30:15.097Z,0
2016-02-15T01:31:15.115Z,0
2016-02-15T01:32:15.133Z,0
2016-02-15T01:33:15.135Z,0
2016-02-15T01:34:15.153Z,0
2016-02-15T01:35:15.188Z,0
2016-02-15T01:36:15.190Z,0
2016-02-15T01:37:15.239Z,0
2016-02-15T01:38:15.227Z,0
2016-02-15T01:39:15.245Z,0
2016-02-15T01:40:15.264Z,0
2016-02-15T01:41:15.298Z,0
2016-02-15T01:42:15.300Z,0
2016-02-15T01:43:15.350Z,0
2016-02-15T01:44:15.337Z,0
2016-02-15T01:45:15.386Z,0
2016-02-15T01:46:15.358Z,0
2016-02-15T01:47:15.376Z,0
2016-02-15T01:48:15.410Z,0
2016-02-15T01:49:15.414Z,0
2016-02-15T01:50:15.447Z,0
2016-02-15T01:51:15.449Z,0
2016-02-15T01:52:15.499Z,0
2016-02-15T01:53:15.517Z,0
2016-02-15T01:54:15.504Z,0
2016-02-15T01:55:15.507Z,0
2016-02-15T01:56:15.557Z,0
2016-02-15T01:57:15.543Z,0
2016-02-15T01:58:15.594Z,0
2016-02-15T01:59:15.580Z,0
2016-02-15T02:00:15.629Z,0
2016-02-15T02:01:15.633Z,0
2016-02-15T02:02:15.682Z,0
2016-02-15T02:03:15.653Z,0
2016-02-15T02:04:15.688Z,0
2016-02-15T02:05:15.706Z,0
2016-02-15T02:06:15.724Z,0
2016-02-15T02:07:15.758Z,0
2016-02-15T02:08:15.760Z,0
2016-02-15T02:09:15.763Z,0
2016-02-15T02:10:15.782Z,0
2016-02-15T02:11:15.800Z,0
2016-02-15T02:12:15.818Z,0
2016-02-15T02:13:15.837Z,0
2016-02-15T02:14:15.839Z,0
2016-02-15T02:15:15.889Z,0
2016-02-15T02:16:15.892Z,0
2016-02-15T02:17:15.894Z,0
2016-02-15T02:18:15.772Z,0
2016-02-15T02:19:15.931Z,0
2016-02-15T02:20:15.964Z,0
2016-02-15T02:21:15.983Z,0
2016-02-15T02:22:16.002Z,0
2016-02-15T02:23:16.020Z,0
2016-02-15T02:24:16.038Z,0
2016-02-15T02:25:16.041Z,0
2016-02-15T02:26:16.058Z,0
2016-02-15T02:27:16.078Z,0
2016-02-15T02:28:16.096Z,0
2016-02-15T02:29:16.113Z,0
2016-02-15T02:30:16.149Z,0
2016-02-15T02:31:16.151Z,0
2016-02-15T02:32:16.185Z,0
2016-02-15T02:33:16.171Z,0
2016-02-15T02:34:16.190Z,0
2016-02-15T02:35:16.224Z,0
2016-02-15T02:36:16.227Z,0
2016-02-15T02:37:16.276Z,0
2016-02-15T02:38:16.263Z,0
2016-02-15T02:39:16.298Z,0
2016-02-15T02:40:16.284Z,0
2016-02-15T02:41:16.334Z,0
2016-02-15T02:42:16.337Z,0
2016-02-15T02:43:16.339Z,0
2016-02-15T02:44:16.373Z,0
2016-02-15T02:45:16.376Z,0
2016-02-15T02:46:16.409Z,0
2016-02-15T02:47:16.412Z,0
2016-02-15T02:48:16.431Z,0
2016-02-15T02:49:16.450Z,0
2016-02-15T02:50:16.483Z,0
2016-02-15T02:51:16.486Z,0
2016-02-15T02:52:16.378Z,0
2016-02-15T02:53:16.506Z,0
2016-02-15T02:54:16.525Z,0
2016-02-15T02:55:16.543Z,0
2016-02-15T02:56:16.593Z,0
2016-02-15T02:57:16.580Z,0
2016-02-15T02:58:16.614Z,0
2016-02-15T02:59:16.616Z,0
2016-02-15T03:00:16.666Z,0
2016-02-15T03:01:16.669Z,0
2016-02-15T03:02:16.671Z,0
2016-02-15T03:03:16.690Z,0
2016-02-15T03:04:16.692Z,0
2016-02-15T03:05:16.727Z,0
2016-02-15T03:06:16.745Z,0
2016-02-15T03:07:16.779Z,0
2016-02-15T03:08:16.766Z,0
2016-02-15T03:09:16.799Z,0
2016-02-15T03:10:16.802Z,0
2016-02-15T03:11:16.821Z,0
2016-02-15T03:12:16.839Z,0
2016-02-15T03:13:16.873Z,0
2016-02-15T03:14:16.875Z,0
2016-02-15T03:15:16.926Z,0
2016-02-15T03:16:16.912Z,0
2016-02-15T03:17:16.946Z,0
2016-02-15T03:18:16.933Z,0
2016-02-15T03:19:16.967Z,0
2016-02-15T03:20:16.986Z,0
2016-02-15T03:21:17.019Z,0
2016-02-15T03:22:17.038Z,0
2016-02-15T03:23:17.009Z,0
2016-02-15T03:24:17.059Z,0
2016-02-15T03:25:17.061Z,0
2016-02-15T03:26:16.939Z,0
2016-02-15T03:27:17.098Z,0
2016-02-15T03:28:17.133Z,0
2016-02-15T03:29:17.119Z,0
2016-02-15T03:30:17.152Z,0
2016-02-15T03:31:17.172Z,0
2016-02-15T03:32:17.190Z,0
2016-02-15T03:33:17.208Z,0
2016-02-15T03:34:17.226Z,0
2016-02-15T03:35:17.260Z,0
2016-02-15T03:36:17.294Z,0
2016-02-15T03:37:17.281Z,0
2016-02-15T03:38:17.284Z,0
2016-02-15T03:39:17.318Z,0
2016-02-15T03:40:17.337Z,0
2016-02-15T03:41:17.323Z,0
2016-02-15T03:42:17.357Z,0
2016-02-15T03:43:17.376Z,0
2016-02-15T03:44:17.393Z,0
2016-02-15T03:45:17.412Z,0
2016-02-15T03:46:17.431Z,0
2016-02-15T03:47:17.433Z,0
2016-02-15T03:48:17.451Z,0
2016-02-15T03:49:17.470Z,0
2016-02-15T03:50:17.489Z,0
2016-02-15T03:51:17.522Z,0
2016-02-15T03:52:17.697Z,0
2016-02-15T03:53:17.559Z,0
2016-02-15T03:54:17.562Z,0
2016-02-15T03:55:17.564Z,0
2016-02-15T03:56:17.597Z,0
2016-02-15T03:57:17.600Z,0
2016-02-15T03:58:17.619Z,0
2016-02-15T03:59:17.669Z,0
2016-02-15T04:00:17.671Z,0
2016-02-15T04:01:17.689Z,0
2016-02-15T04:02:17.708Z,0
2016-02-15T04:03:17.695Z,0
2016-02-15T04:04:17.713Z,0
2016-02-15T04:05:17.746Z,0
2016-02-15T04:06:17.766Z,0
2016-02-15T04:07:17.768Z,0
2016-02-15T04:08:17.802Z,0
2016-02-15T04:09:17.821Z,0
2016-02-15T04:10:17.823Z,0
2016-02-15T04:11:17.841Z,0
2016-02-15T04:12:17.860Z,0
2016-02-15T04:13:17.878Z,0
2016-02-15T04:14:17.896Z,0
2016-02-15T04:15:17.931Z,0
2016-02-15T04:16:17.933Z,0
2016-02-15T04:17:17.951Z,0
2016-02-15T04:18:17.954Z,0
2016-02-15T04:19:17.972Z,0
2016-02-15T04:20:18.006Z,0
2016-02-15T04:21:18.009Z,0
2016-02-15T04:22:18.027Z,0
2016-02-15T04:23:18.045Z,0
2016-02-15T04:24:18.064Z,0
2016-02-15T04:25:18.066Z,0
2016-02-15T04:26:18.086Z,0
2016-02-15T04:27:18.103Z,0
2016-02-15T04:28:18.121Z,0
2016-02-15T04:29:18.156Z,0
2016-02-15T04:30:18.174Z,0
2016-02-15T04:31:18.176Z,0
2016-02-15T04:32:18.180Z,0
2016-02-15T04:33:18.197Z,0
2016-02-15T04:34:18.216Z,0
2016-02-15T04:35:18.234Z,0
2016-02-15T04:36:18.252Z,0
2016-02-15T04:37:18.270Z,0
2016-02-15T04:38:18.305Z,0
2016-02-15T04:39:18.307Z,0
2016-02-15T04:40:18.325Z,0
2016-02-15T04:41:18.344Z,0
2016-02-15T04:42:18.362Z,0
2016-02-15T04:43:18.381Z,0
2016-02-15T04:44:18.227Z,0
2016-02-15T04:45:18.417Z,0
2016-02-15T04:46:18.467Z,0
2016-02-15T04:47:18.454Z,0
2016-02-15T04:48:18.472Z,0
2016-02-15T04:49:18.475Z,0
2016-02-15T04:50:18.493Z,0
2016-02-15T04:51:18.495Z,0
2016-02-15T04:52:18.515Z,0
2016-02-15T04:53:18.548Z,0
2016-02-15T04:54:18.566Z,0
2016-02-15T04:55:18.601Z,0
2016-02-15T04:56:18.603Z,0
2016-02-15T04:57:18.621Z,0
2016-02-15T04:58:18.655Z,0
2016-02-15T04:59:18.658Z,0
2016-02-15T05:00:18.660Z,0
2016-02-15T05:01:18.680Z,0
2016-02-15T05:02:18.697Z,0
2016-02-15T05:03:18.746Z,0
2016-02-15T05:04:18.734Z,0
2016-02-15T05:05:18.752Z,0
2016-02-15T05:06:18.785Z,0
2016-02-15T05:07:18.789Z,0
2016-02-15T05:08:18.823Z,0
2016-02-15T05:09:18.826Z,0
2016-02-15T05:10:18.829Z,0
2016-02-15T05:11:18.863Z,0
2016-02-15T05:12:18.880Z,0
2016-02-15T05:13:18.915Z,0
2016-02-15T05:14:18.901Z,0
2016-02-15T05:15:18.920Z,0
2016-02-15T05:16:18.938Z,0
2016-02-15T05:17:18.956Z,0
2016-02-15T05:18:18.975Z,0
2016-02-15T05:19:18.993Z,0
2016-02-15T05:20:19.011Z,0
2016-02-15T05:21:19.014Z,0
2016-02-15T05:22:19.032Z,0
2016-02-15T05:23:19.050Z,0
2016-02-15T05:24:19.084Z,0
2016-02-15T05:25:19.103Z,0
2016-02-15T05:26:19.121Z,0
2016-02-15T05:27:19.125Z,0
2016-02-15T05:28:19.142Z,0
2016-02-15T05:29:19.160Z,0
2016-02-15T05:30:19.179Z,0
2016-02-15T05:31:19.197Z,0
2016-02-15T05:32:19.231Z,0
2016-02-15T05:33:19.233Z,0
2016-02-15T05:34:19.252Z,0
2016-02-15T05:35:19.255Z,0
2016-02-15T05:36:19.274Z,0
2016-02-15T05:37:19.291Z,0
2016-02-15T05:38:19.309Z,0
2016-02-15T05:39:19.328Z,0
2016-02-15T05:40:19.346Z,0
2016-02-15T05:41:19.379Z,0
2016-02-15T05:42:19.382Z,0
2016-02-15T05:43:19.417Z,0
2016-02-15T05:44:19.466Z,0
2016-02-15T05:45:19.454Z,0
2016-02-15T05:46:19.440Z,0
2016-02-15T05:47:19.490Z,0
2016-02-15T05:48:19.493Z,0
2016-02-15T05:49:19.495Z,0
2016-02-15T05:50:19.514Z,0
2016-02-15T05:51:19.517Z,0
2016-02-15T05:52:19.551Z,0
2016-02-15T05:53:19.569Z,0
2016-02-15T05:54:19.572Z,0
2016-02-15T05:55:19.606Z,0
2016-02-15T05:56:19.623Z,0
2016-02-15T05:57:19.626Z,0
2016-02-15T05:58:19.661Z,0
2016-02-15T05:59:19.663Z,0
2016-02-15T06:00:19.697Z,0
2016-02-15T06:01:19.699Z,0
2016-02-15T06:02:19.734Z,0
2016-02-15T06:03:19.721Z,0
2016-02-15T06:04:19.661Z,0
2016-02-15T06:05:19.772Z,0
2016-02-15T06:06:19.807Z,0
2016-02-15T06:07:19.794Z,0
2016-02-15T06:08:19.827Z,0
2016-02-15T06:09:19.830Z,0
2016-02-15T06:10:19.865Z,0
2016-02-15T06:11:19.868Z,0
2016-02-15T06:12:19.901Z,4
2016-02-15T06:13:19.904Z,4
2016-02-15T06:14:19.937Z,0
2016-02-15T06:15:19.925Z,4
2016-02-15T06:16:19.943Z,4
2016-02-15T06:17:19.961Z,4
2016-02-15T06:18:19.980Z,4
2016-02-15T06:19:20.014Z,8
2016-02-15T06:20:20.017Z,4
2016-02-15T06:21:20.034Z,4
2016-02-15T06:22:20.053Z,8
2016-02-15T06:23:20.087Z,8
2016-02-15T06:24:20.090Z,8
2016-02-15T06:25:20.092Z,8
2016-02-15T06:26:20.141Z,8
2016-02-15T06:27:20.145Z,8
2016-02-15T06:28:20.147Z,8
2016-02-15T06:29:20.166Z,12
2016-02-15T06:30:20.200Z,8
2016-02-15T06:31:20.202Z,12
2016-02-15T06:32:20.220Z,12
2016-02-15T06:33:20.255Z,12
2016-02-15T06:34:20.257Z,16
2016-02-15T06:35:20.291Z,16
2016-02-15T06:36:20.310Z,16
2016-02-15T06:37:20.296Z,16
2016-02-15T06:38:20.331Z,16
2016-02-15T06:39:20.333Z,20
2016-02-15T06:40:20.366Z,20
2016-02-15T06:41:20.386Z,20
2016-02-15T06:42:20.435Z,20
2016-02-15T06:43:20.406Z,24
2016-02-15T06:44:20.440Z,24
2016-02-15T06:45:20.443Z,28
2016-02-15T06:46:20.461Z,28
2016-02-15T06:47:20.480Z,32
2016-02-15T06:48:20.482Z,32
2016-02-15T06:49:20.500Z,36
2016-02-15T06:50:20.519Z,32
2016-02-15T06:51:20.553Z,32
2016-02-15T06:52:20.555Z,36
2016-02-15T06:53:20.590Z,40
2016-02-15T06:54:20.592Z,48
2016-02-15T06:55:20.626Z,52
2016-02-15T06:56:20.629Z,56
2016-02-15T06:57:20.662Z,64
2016-02-15T06:58:20.650Z,68
2016-02-15T06:59:20.668Z,80
2016-02-15T07:00:20.702Z,84
2016-02-15T07:01:20.705Z,92
2016-02-15T07:02:20.755Z,84
2016-02-15T07:03:20.757Z,84
2016-02-15T07:04:20.822Z,84
2016-02-15T07:05:20.622Z,84
2016-02-15T07:06:20.796Z,88
2016-02-15T07:07:20.814Z,100
2016-02-15T07:08:20.833Z,100
2016-02-15T07:09:20.851Z,96
2016-02-15T07:10:20.885Z,92
2016-02-15T07:11:20.872Z,92
2016-02-15T07:12:20.890Z,96
2016-02-15T07:13:20.925Z,100
2016-02-15T07:14:20.927Z,108
2016-02-15T07:15:20.804Z,116
2016-02-15T07:16:20.964Z,120
2016-02-15T07:17:20.982Z,140
2016-02-15T07:18:21.001Z,148
2016-02-15T07:19:21.034Z,148
2016-02-15T07:20:21.037Z,152
2016-02-15T07:21:21.040Z,156
2016-02-15T07:22:21.059Z,156
2016-02-15T07:23:21.077Z,160
2016-02-15T07:24:21.109Z,148
2016-02-15T07:25:21.113Z,144
2016-02-15T07:26:21.147Z,144
2016-02-15T07:27:21.149Z,140
2016-02-15T07:28:21.183Z,144
2016-02-15T07:29:21.186Z,148
2016-02-15T07:30:21.189Z,156
2016-02-15T07:31:21.223Z,160
2016-02-15T07:32:21.225Z,168
2016-02-15T07:33:21.244Z,172
2016-02-15T07:34:21.309Z,176
2016-02-15T07:35:21.311Z,200
2016-02-15T07:36:21.299Z,232
2016-02-15T07:37:21.317Z,268
2016-02-15T07:38:21.335Z,292
2016-02-15T07:39:21.183Z,340
2016-02-15T07:40:21.357Z,344
2016-02-15T07:41:21.391Z,292
2016-02-15T07:42:21.393Z,260
2016-02-15T07:43:21.427Z,256
2016-02-15T07:44:21.430Z,260
2016-02-15T07:45:21.463Z,268
2016-02-15T07:46:21.466Z,288
2016-02-15T07:47:21.500Z,380
2016-02-15T07:48:21.488Z,424
2016-02-15T07:49:21.521Z,460
2016-02-15T07:50:21.540Z,464
2016-02-15T07:51:21.573Z,484
2016-02-15T07:52:21.576Z,560
2016-02-15T07:53:21.595Z,664
2016-02-15T07:54:21.612Z,752
2016-02-15T07:55:21.631Z,776
2016-02-15T07:56:21.634Z,760
2016-02-15T07:57:21.668Z,852
2016-02-15T07:58:21.670Z,888
2016-02-15T07:59:21.689Z,892
2016-02-15T08:00:21.723Z,776
2016-02-15T08:01:21.725Z,744
2016-02-15T08:02:21.759Z,720
2016-02-15T08:03:21.762Z,720
2016-02-15T08:04:21.797Z,640
2016-02-15T08:05:21.799Z,692
2016-02-15T08:06:21.833Z,632
2016-02-15T08:07:21.819Z,628
2016-02-15T08:08:21.838Z,580
2016-02-15T08:09:21.981Z,492
2016-02-15T08:10:21.890Z,436
2016-02-15T08:11:21.908Z,396
2016-02-15T08:12:21.927Z,356
2016-02-15T08:13:22.039Z,344
2016-02-15T08:14:21.964Z,368
2016-02-15T08:15:21.966Z,508
2016-02-15T08:16:21.999Z,520
2016-02-15T08:17:22.019Z,508
2016-02-15T08:18:22.021Z,580
2016-02-15T08:19:22.040Z,564
2016-02-15T08:20:22.042Z,576
2016-02-15T08:21:22.060Z,648
2016-02-15T08:22:22.095Z,828
2016-02-15T08:23:22.098Z,932
2016-02-15T08:24:22.115Z,1116
2016-02-15T08:25:21.977Z,1180
2016-02-15T08:26:22.168Z,1168
2016-02-15T08:27:22.186Z,1088
2016-02-15T08:28:22.188Z,1088
2016-02-15T08:29:22.207Z,1208
2016-02-15T08:30:22.225Z,1204
2016-02-15T08:31:22.244Z,1104
2016-02-15T08:32:22.261Z,1008
2016-02-15T08:33:22.280Z,1004
2016-02-15T08:34:22.283Z,1060
2016-02-15T08:35:22.317Z,1012
2016-02-15T08:36:22.320Z,948
2016-02-15T08:37:22.353Z,920
2016-02-15T08:38:22.355Z,1012
2016-02-15T08:39:22.374Z,1184
2016-02-15T08:40:22.409Z,1172
2016-02-15T08:41:22.411Z,1128
2016-02-15T08:42:22.429Z,1100
2016-02-15T08:43:22.448Z,1040
2016-02-15T08:44:22.466Z,928
2016-02-15T08:45:22.500Z,984
2016-02-15T08:46:22.502Z,1060
2016-02-15T08:47:22.521Z,856
2016-02-15T08:48:22.523Z,1032
2016-02-15T08:49:22.558Z,1264
2016-02-15T08:50:22.576Z,1396
2016-02-15T08:51:22.578Z,1248
2016-02-15T08:52:22.613Z,1140
2016-02-15T08:53:22.631Z,1052
2016-02-15T08:54:22.648Z,1172
2016-02-15T08:55:22.918Z,1244
2016-02-15T08:56:22.670Z,1176
2016-02-15T08:57:22.689Z,1104
2016-02-15T08:58:22.707Z,960
2016-02-15T08:59:22.725Z,828
2016-02-15T09:00:22.759Z,792
2016-02-15T09:01:22.762Z,792
2016-02-15T09:02:22.780Z,860
2016-02-15T09:03:22.798Z,1060
2016-02-15T09:04:22.816Z,940
2016-02-15T09:05:22.851Z,696
2016-02-15T09:06:22.853Z,744
2016-02-15T09:07:22.856Z,696
2016-02-15T09:08:22.889Z,712
2016-02-15T09:09:22.908Z,912
2016-02-15T09:10:22.927Z,940
2016-02-15T09:11:22.788Z,944
2016-02-15T09:12:22.963Z,988
2016-02-15T09:13:22.982Z,1068
2016-02-15T09:14:23.000Z,1068
2016-02-15T09:15:23.006Z,940
2016-02-15T09:16:23.025Z,788
2016-02-15T09:17:23.059Z,620
2016-02-15T09:18:23.061Z,644
2016-02-15T09:19:23.095Z,628
2016-02-15T09:20:23.114Z,508
2016-02-15T09:21:23.116Z,520
2016-02-15T09:22:23.134Z,824
2016-02-15T09:23:23.153Z,852
2016-02-15T09:24:23.171Z,700
2016-02-15T09:25:23.189Z,684
2016-02-15T09:26:23.255Z,756
2016-02-15T09:27:23.241Z,912
2016-02-15T09:28:23.229Z,1028
2016-02-15T09:29:23.263Z,1140
2016-02-15T09:30:23.280Z,1156
2016-02-15T09:31:23.299Z,1084
2016-02-15T09:32:23.318Z,924
2016-02-15T09:33:23.351Z,852
2016-02-15T09:34:23.338Z,748
2016-02-15T09:35:23.357Z,500
2016-02-15T09:36:23.391Z,564
2016-02-15T09:37:23.409Z,592
2016-02-15T09:38:23.412Z,476
2016-02-15T09:39:23.445Z,568
2016-02-15T09:40:23.464Z,704
2016-02-15T09:41:23.482Z,668
2016-02-15T09:42:23.485Z,852
2016-02-15T09:43:23.503Z,836
2016-02-15T09:44:23.523Z,848
2016-02-15T09:45:23.556Z,860
2016-02-15T09:46:23.573Z,884
2016-02-15T09:47:23.562Z,876
2016-02-15T09:48:23.595Z,840
2016-02-15T09:49:23.613Z,864
2016-02-15T09:50:23.648Z,1032
2016-02-15T09:51:23.650Z,848
2016-02-15T09:52:23.669Z,916
2016-02-15T09:53:23.687Z,912
2016-02-15T09:54:23.720Z,664
2016-02-15T09:55:23.723Z,720
2016-02-15T09:56:23.741Z,648
2016-02-15T09:57:23.775Z,436
2016-02-15T09:58:23.778Z,416
2016-02-15T09:59:23.796Z,460
2016-02-15T10:00:23.831Z,444
2016-02-15T10:01:23.833Z,488
2016-02-15T10:02:23.883Z,784
2016-02-15T10:03:23.901Z,880
2016-02-15T10:04:23.951Z,928
2016-02-15T10:05:23.907Z,892
2016-02-15T10:06:23.940Z,680
2016-02-15T10:07:23.943Z,596
2016-02-15T10:08:23.821Z,528
2016-02-15T10:09:23.980Z,532
2016-02-15T10:10:24.013Z,620
2016-02-15T10:11:24.016Z,500
2016-02-15T10:12:24.018Z,508
2016-02-15T10:13:24.053Z,444
2016-02-15T10:14:24.055Z,504
2016-02-15T10:15:24.106Z,544
2016-02-15T10:16:24.123Z,660
2016-02-15T10:17:24.126Z,796
2016-02-15T10:18:24.143Z,972
2016-02-15T10:19:24.163Z,1332
2016-02-15T10:20:24.153Z,1296
2016-02-15T10:21:24.174Z,1240
2016-02-15T10:22:24.148Z,1300
2016-02-15T10:23:24.186Z,1348
2016-02-15T10:24:24.215Z,1416
2016-02-15T10:25:24.198Z,1816
2016-02-15T10:26:24.212Z,1564
2016-02-15T10:27:24.224Z,1140
2016-02-15T10:28:24.239Z,1116
2016-02-15T10:29:24.287Z,1028
2016-02-15T10:30:24.271Z,1008
2016-02-15T10:31:24.288Z,808
2016-02-15T10:32:24.305Z,684
2016-02-15T10:33:24.306Z,612
2016-02-15T10:34:24.339Z,576
2016-02-15T10:35:24.341Z,540
2016-02-15T10:36:24.375Z,480
2016-02-15T10:37:24.377Z,524
2016-02-15T10:38:24.426Z,588
2016-02-15T10:39:24.413Z,612
2016-02-15T10:40:24.462Z,544
2016-02-15T10:41:24.450Z,644
2016-02-15T10:42:24.483Z,672
2016-02-15T10:43:24.485Z,560
2016-02-15T10:44:24.503Z,588
2016-02-15T10:45:24.537Z,664
2016-02-15T10:46:24.540Z,592
2016-02-15T10:47:24.558Z,640
2016-02-15T10:48:24.592Z,680
2016-02-15T10:49:24.611Z,580
2016-02-15T10:50:24.629Z,580
2016-02-15T10:51:24.631Z,500
2016-02-15T10:52:24.666Z,556
2016-02-15T10:53:24.699Z,528
2016-02-15T10:54:24.717Z,632
2016-02-15T10:55:24.705Z,684
2016-02-15T10:56:24.739Z,572
2016-02-15T10:57:24.742Z,932
2016-02-15T10:58:24.791Z,848
2016-02-15T10:59:24.778Z,760
2016-02-15T11:00:24.812Z,664
2016-02-15T11:01:24.830Z,756
2016-02-15T11:02:24.833Z,792
2016-02-15T11:03:24.867Z,696
2016-02-15T11:04:24.869Z,696
2016-02-15T11:05:24.889Z,560
2016-02-15T11:06:24.922Z,452
2016-02-15T11:07:24.924Z,404
2016-02-15T11:08:24.959Z,424
2016-02-15T11:09:24.961Z,424
2016-02-15T11:10:24.979Z,412
2016-02-15T11:11:24.998Z,420
2016-02-15T11:12:25.047Z,396
2016-02-15T11:13:25.035Z,444
2016-02-15T11:14:25.069Z,464
2016-02-15T11:15:25.071Z,540
2016-02-15T11:16:25.121Z,516
2016-02-15T11:17:25.107Z,488
2016-02-15T11:18:25.157Z,468
2016-02-15T11:19:25.160Z,420
2016-02-15T11:20:25.162Z,528
2016-02-15T11:21:25.182Z,572
2016-02-15T11:22:25.230Z,620
2016-02-15T11:23:25.232Z,528
2016-02-15T11:24:25.236Z,564
2016-02-15T11:25:25.254Z,644
2016-02-15T11:26:25.272Z,664
2016-02-15T11:27:25.291Z,852
2016-02-15T11:28:25.325Z,928
2016-02-15T11:29:25.749Z,876
2016-02-15T11:30:25.362Z,760
2016-02-15T11:31:25.364Z,688
2016-02-15T11:32:25.398Z,704
2016-02-15T11:33:25.400Z,688
2016-02-15T11:34:25.419Z,1048
2016-02-15T11:35:25.453Z,1304
2016-02-15T11:36:25.455Z,1312
2016-02-15T11:37:25.506Z,1352
2016-02-15T11:38:25.508Z,1224
2016-02-15T11:39:25.510Z,1104
2016-02-15T11:40:25.513Z,1160
2016-02-15T11:41:25.563Z,1176
2016-02-15T11:42:25.581Z,1332
2016-02-15T11:43:25.568Z,1168
2016-02-15T11:44:25.602Z,1200
2016-02-15T11:45:25.636Z,1340
2016-02-15T11:46:25.639Z,1212
2016-02-15T11:47:25.641Z,1004
2016-02-15T11:48:25.675Z,1248
2016-02-15T11:49:25.678Z,936
2016-02-15T11:50:25.727Z,1120
2016-02-15T11:51:25.715Z,976
2016-02-15T11:52:25.765Z,912
2016-02-15T11:53:25.782Z,1104
2016-02-15T11:54:25.801Z,1464
2016-02-15T11:55:25.804Z,1428
2016-02-15T11:56:25.837Z,952
2016-02-15T11:57:25.840Z,748
2016-02-15T11:58:25.874Z,796
2016-02-15T11:59:25.861Z,804
2016-02-15T12:00:25.895Z,788
2016-02-15T12:01:25.929Z,972
2016-02-15T12:02:25.917Z,1204
2016-02-15T12:03:25.950Z,1248
2016-02-15T12:04:25.968Z,1156
2016-02-15T12:05:26.018Z,1072
2016-02-15T12:06:26.005Z,996
2016-02-15T12:07:26.023Z,1072
2016-02-15T12:08:26.058Z,1192
2016-02-15T12:09:26.075Z,1196
2016-02-15T12:10:26.063Z,1268
2016-02-15T12:11:26.112Z,1352
2016-02-15T12:12:26.099Z,1456
2016-02-15T12:13:26.164Z,1260
2016-02-15T12:14:26.152Z,1260
2016-02-15T12:15:26.170Z,1284
2016-02-15T12:16:26.188Z,1156
2016-02-15T12:17:26.191Z,1308
2016-02-15T12:18:26.225Z,1020
2016-02-15T12:19:26.244Z,1040
2016-02-15T12:20:26.261Z,1156
2016-02-15T12:21:26.280Z,1164
2016-02-15T12:22:26.299Z,1092
2016-02-15T12:23:26.332Z,1140
2016-02-15T12:24:26.351Z,1284
2016-02-15T12:25:26.338Z,1308
2016-02-15T12:26:26.387Z,1292
2016-02-15T12:27:26.374Z,1284
2016-02-15T12:28:26.423Z,1244
2016-02-15T12:29:26.426Z,1124
2016-02-15T12:30:26.429Z,1028
2016-02-15T12:31:26.462Z,996
2016-02-15T12:32:26.465Z,948
2016-02-15T12:33:26.531Z,1120
2016-02-15T12:34:26.502Z,1588
2016-02-15T12:35:26.536Z,1984
2016-02-15T12:36:26.554Z,1808
2016-02-15T12:37:26.557Z,1748
2016-02-15T12:38:26.591Z,1208
2016-02-15T12:39:26.609Z,968
2016-02-15T12:40:26.628Z,820
2016-02-15T12:41:26.661Z,740
2016-02-15T12:42:26.650Z,880
2016-02-15T12:43:26.667Z,1008
2016-02-15T12:44:26.701Z,1008
2016-02-15T12:45:26.719Z,876
2016-02-15T12:46:26.738Z,960
2016-02-15T12:47:26.755Z,1168
2016-02-15T12:48:26.774Z,1312
2016-02-15T12:49:26.793Z,1384
2016-02-15T12:50:26.827Z,1456
2016-02-15T12:51:26.829Z,1460
2016-02-15T12:52:26.863Z,1324
2016-02-15T12:53:26.866Z,1196
2016-02-15T12:54:26.899Z,1072
2016-02-15T12:55:26.918Z,1016
2016-02-15T12:56:26.937Z,1140
2016-02-15T12:57:26.940Z,1052
2016-02-15T12:58:26.988Z,1160
2016-02-15T12:59:26.975Z,1400
2016-02-15T13:00:26.994Z,1212
2016-02-15T13:01:27.012Z,1432
2016-02-15T13:02:27.045Z,1868
2016-02-15T13:03:27.065Z,1540
2016-02-15T13:04:27.114Z,1420
2016-02-15T13:05:27.101Z,856
2016-02-15T13:06:27.120Z,976
2016-02-15T13:07:27.137Z,1108
2016-02-15T13:08:27.140Z,1464
2016-02-15T13:09:27.190Z,1632
2016-02-15T13:10:27.536Z,1296
2016-02-15T13:11:27.195Z,1500
2016-02-15T13:12:27.230Z,1632
2016-02-15T13:13:27.233Z,1624
2016-02-15T13:14:27.266Z,1568
2016-02-15T13:15:27.299Z,1368
2016-02-15T13:16:27.303Z,1216
2016-02-15T13:17:27.336Z,1268
2016-02-15T13:18:27.338Z,1240
2016-02-15T13:19:27.374Z,1208
2016-02-15T13:20:27.376Z,1024
2016-02-15T13:21:27.379Z,968
2016-02-15T13:22:27.413Z,976
2016-02-15T13:23:27.430Z,944
2016-02-15T13:24:27.449Z,960
2016-02-15T13:25:27.452Z,876
2016-02-15T13:26:27.501Z,864
2016-02-15T13:27:27.504Z,828
2016-02-15T13:28:27.366Z,956
2016-02-15T13:29:27.541Z,968
2016-02-15T13:30:27.574Z,1020
2016-02-15T13:31:27.577Z,1124
2016-02-15T13:32:27.595Z,1080
2016-02-15T13:33:27.629Z,868
2016-02-15T13:34:27.475Z,724
2016-02-15T13:35:27.666Z,968
2016-02-15T13:36:27.670Z,1112
2016-02-15T13:37:27.703Z,1208
2016-02-15T13:38:27.720Z,1716
2016-02-15T13:39:27.724Z,1116
2016-02-15T13:40:27.742Z,656
2016-02-15T13:41:27.760Z,656
2016-02-15T13:42:27.795Z,640
2016-02-15T13:43:27.813Z,760
2016-02-15T13:44:27.816Z,728
2016-02-15T13:45:27.834Z,752
2016-02-15T13:46:27.852Z,832
2016-02-15T13:47:27.870Z,924
2016-02-15T13:48:27.888Z,924
2016-02-15T13:49:27.922Z,1248
2016-02-15T13:50:27.941Z,1352
2016-02-15T13:51:27.959Z,1124
2016-02-15T13:52:27.963Z,1644
2016-02-15T13:53:27.980Z,1828
2016-02-15T13:54:27.998Z,1476
2016-02-15T13:55:28.017Z,1292
2016-02-15T13:56:28.051Z,1164
2016-02-15T13:57:28.068Z,908
2016-02-15T13:58:28.088Z,608
2016-02-15T13:59:28.106Z,412
2016-02-15T14:00:28.124Z,288
2016-02-15T14:01:28.143Z,300
2016-02-15T14:02:28.160Z,376
2016-02-15T14:03:28.179Z,316
2016-02-15T14:04:28.197Z,408
2016-02-15T14:05:28.231Z,352
2016-02-15T14:06:28.265Z,252
2016-02-15T14:07:28.268Z,324
2016-02-15T14:08:28.270Z,280
2016-02-15T14:09:28.304Z,304